sensor_id;sensor_type;location;lat;lon;timestamp;P1;durP1;ratioP1;P2;durP2;ratioP2
8526;SDS011;4301;48.362;8.478;2023-02-28T00:01:10;4.83;;;3.20;;
8526;SDS011;4301;48.362;8.478;2023-02-28T00:03:38;4.67;;;3.37;;
8526;SDS011;4301;48.362;8.478;2023-02-28T00:06:06;4.63;;;3.50;;
8526;SDS011;4301;48.362;8.478;2023-02-28T00:08:34;4.20;;;3.23;;
8526;SDS011;4301;48.362;8.478;2023-02-28T00:11:02;3.87;;;3.50;;
8526;SDS011;4301;48.362;8.478;2023-02-28T00:13:30;3.47;;;3.17;;
8526;SDS011;4301;48.362;8.478;2023-02-28T00:16:01;3.33;;;3.03;;
8526;SDS011;4301;48.362;8.478;2023-02-28T00:18:30;4.00;;;3.10;;
8526;SDS011;4301;48.362;8.478;2023-02-28T00:20:57;3.40;;;3.10;;
8526;SDS011;4301;48.362;8.478;2023-02-28T00:23:24;4.60;;;3.33;;
8526;SDS011;4301;48.362;8.478;2023-02-28T00:25:51;3.73;;;3.20;;
8526;SDS011;4301;48.362;8.478;2023-02-28T00:28:18;3.73;;;3.37;;
8526;SDS011;4301;48.362;8.478;2023-02-28T00:30:46;3.83;;;3.10;;
8526;SDS011;4301;48.362;8.478;2023-02-28T00:33:15;3.93;;;3.53;;
8526;SDS011;4301;48.362;8.478;2023-02-28T00:35:42;4.53;;;2.83;;
8526;SDS011;4301;48.362;8.478;2023-02-28T00:38:11;3.37;;;3.07;;
8526;SDS011;4301;48.362;8.478;2023-02-28T00:40:38;3.50;;;3.20;;
8526;SDS011;4301;48.362;8.478;2023-02-28T00:43:05;4.13;;;3.40;;
8526;SDS011;4301;48.362;8.478;2023-02-28T00:45:32;6.20;;;3.27;;
8526;SDS011;4301;48.362;8.478;2023-02-28T00:47:59;4.47;;;3.00;;
8526;SDS011;4301;48.362;8.478;2023-02-28T00:50:27;3.93;;;3.43;;
8526;SDS011;4301;48.362;8.478;2023-02-28T00:52:54;3.40;;;3.10;;
8526;SDS011;4301;48.362;8.478;2023-02-28T00:55:21;3.33;;;3.03;;
8526;SDS011;4301;48.362;8.478;2023-02-28T00:57:48;3.40;;;3.07;;
8526;SDS011;4301;48.362;8.478;2023-02-28T01:00:16;4.63;;;3.23;;
8526;SDS011;4301;48.362;8.478;2023-02-28T01:02:44;3.63;;;3.30;;
8526;SDS011;4301;48.362;8.478;2023-02-28T01:05:11;3.40;;;3.00;;
8526;SDS011;4301;48.362;8.478;2023-02-28T01:07:39;3.47;;;3.20;;
8526;SDS011;4301;48.362;8.478;2023-02-28T01:10:06;3.57;;;3.20;;
8526;SDS011;4301;48.362;8.478;2023-02-28T01:12:34;3.90;;;3.50;;
8526;SDS011;4301;48.362;8.478;2023-02-28T01:15:01;3.60;;;3.27;;
8526;SDS011;4301;48.362;8.478;2023-02-28T01:17:29;3.90;;;3.50;;
8526;SDS011;4301;48.362;8.478;2023-02-28T01:19:56;3.67;;;3.37;;
8526;SDS011;4301;48.362;8.478;2023-02-28T01:22:23;3.87;;;3.40;;
8526;SDS011;4301;48.362;8.478;2023-02-28T01:24:51;3.30;;;3.00;;
8526;SDS011;4301;48.362;8.478;2023-02-28T01:27:18;3.53;;;3.23;;
8526;SDS011;4301;48.362;8.478;2023-02-28T01:29:45;4.37;;;3.40;;
8526;SDS011;4301;48.362;8.478;2023-02-28T01:32:12;4.03;;;3.40;;
8526;SDS011;4301;48.362;8.478;2023-02-28T01:34:39;4.33;;;3.23;;
8526;SDS011;4301;48.362;8.478;2023-02-28T01:37:06;3.60;;;3.30;;
8526;SDS011;4301;48.362;8.478;2023-02-28T01:39:33;4.13;;;3.20;;
8526;SDS011;4301;48.362;8.478;2023-02-28T01:42:01;5.20;;;3.40;;
8526;SDS011;4301;48.362;8.478;2023-02-28T01:47:23;3.80;;;3.37;;
8526;SDS011;4301;48.362;8.478;2023-02-28T01:49:52;4.47;;;3.37;;
8526;SDS011;4301;48.362;8.478;2023-02-28T01:52:19;4.00;;;3.40;;
8526;SDS011;4301;48.362;8.478;2023-02-28T01:54:48;3.70;;;3.30;;
8526;SDS011;4301;48.362;8.478;2023-02-28T01:57:20;4.83;;;3.27;;
8526;SDS011;4301;48.362;8.478;2023-02-28T01:59:50;5.20;;;3.87;;
8526;SDS011;4301;48.362;8.478;2023-02-28T02:02:20;4.40;;;3.37;;
8526;SDS011;4301;48.362;8.478;2023-02-28T02:04:50;3.60;;;3.30;;
8526;SDS011;4301;48.362;8.478;2023-02-28T02:07:20;5.00;;;3.60;;
8526;SDS011;4301;48.362;8.478;2023-02-28T02:09:49;4.17;;;3.77;;
8526;SDS011;4301;48.362;8.478;2023-02-28T02:12:21;4.43;;;3.30;;
8526;SDS011;4301;48.362;8.478;2023-02-28T02:15:00;4.17;;;3.70;;
8526;SDS011;4301;48.362;8.478;2023-02-28T02:17:36;4.73;;;3.77;;
8526;SDS011;4301;48.362;8.478;2023-02-28T02:23:20;3.50;;;3.20;;
8526;SDS011;4301;48.362;8.478;2023-02-28T02:26:19;3.40;;;3.10;;
8526;SDS011;4301;48.362;8.478;2023-02-28T02:32:13;3.63;;;3.27;;
8526;SDS011;4301;48.362;8.478;2023-02-28T02:34:56;6.30;;;3.60;;
8526;SDS011;4301;48.362;8.478;2023-02-28T02:37:32;3.43;;;3.13;;
8526;SDS011;4301;48.362;8.478;2023-02-28T02:40:08;5.47;;;3.53;;
8526;SDS011;4301;48.362;8.478;2023-02-28T02:42:41;3.83;;;3.47;;
8526;SDS011;4301;48.362;8.478;2023-02-28T02:45:16;3.57;;;3.27;;
8526;SDS011;4301;48.362;8.478;2023-02-28T02:47:47;5.43;;;3.40;;
8526;SDS011;4301;48.362;8.478;2023-02-28T02:50:17;4.37;;;3.53;;
8526;SDS011;4301;48.362;8.478;2023-02-28T02:52:51;4.97;;;3.90;;
8526;SDS011;4301;48.362;8.478;2023-02-28T02:55:20;4.03;;;3.63;;
8526;SDS011;4301;48.362;8.478;2023-02-28T02:57:49;4.13;;;3.73;;
8526;SDS011;4301;48.362;8.478;2023-02-28T03:00:23;4.10;;;3.43;;
8526;SDS011;4301;48.362;8.478;2023-02-28T03:02:52;5.50;;;3.97;;
8526;SDS011;4301;48.362;8.478;2023-02-28T03:05:25;4.00;;;3.60;;
8526;SDS011;4301;48.362;8.478;2023-02-28T03:07:54;4.33;;;3.60;;
8526;SDS011;4301;48.362;8.478;2023-02-28T03:10:29;4.80;;;3.97;;
8526;SDS011;4301;48.362;8.478;2023-02-28T03:13:00;4.10;;;3.70;;
8526;SDS011;4301;48.362;8.478;2023-02-28T03:15:39;4.43;;;3.97;;
8526;SDS011;4301;48.362;8.478;2023-02-28T03:18:18;4.13;;;3.83;;
8526;SDS011;4301;48.362;8.478;2023-02-28T03:20:56;5.57;;;4.13;;
8526;SDS011;4301;48.362;8.478;2023-02-28T03:23:34;5.17;;;4.60;;
8526;SDS011;4301;48.362;8.478;2023-02-28T03:26:07;6.70;;;4.33;;
8526;SDS011;4301;48.362;8.478;2023-02-28T03:28:41;4.40;;;4.00;;
8526;SDS011;4301;48.362;8.478;2023-02-28T03:31:14;5.07;;;4.10;;
8526;SDS011;4301;48.362;8.478;2023-02-28T03:33:47;4.70;;;4.20;;
8526;SDS011;4301;48.362;8.478;2023-02-28T03:36:22;4.27;;;3.80;;
8526;SDS011;4301;48.362;8.478;2023-02-28T03:38:54;4.60;;;4.10;;
8526;SDS011;4301;48.362;8.478;2023-02-28T03:41:29;4.53;;;3.90;;
8526;SDS011;4301;48.362;8.478;2023-02-28T03:44:01;5.73;;;3.97;;
8526;SDS011;4301;48.362;8.478;2023-02-28T03:46:33;4.77;;;4.30;;
8526;SDS011;4301;48.362;8.478;2023-02-28T03:49:06;4.47;;;4.07;;
8526;SDS011;4301;48.362;8.478;2023-02-28T03:51:41;4.87;;;4.37;;
8526;SDS011;4301;48.362;8.478;2023-02-28T03:54:10;5.57;;;4.43;;
8526;SDS011;4301;48.362;8.478;2023-02-28T03:56:43;5.63;;;4.57;;
8526;SDS011;4301;48.362;8.478;2023-02-28T03:59:16;5.07;;;4.43;;
8526;SDS011;4301;48.362;8.478;2023-02-28T04:01:49;5.50;;;4.87;;
8526;SDS011;4301;48.362;8.478;2023-02-28T04:04:17;5.37;;;4.80;;
8526;SDS011;4301;48.362;8.478;2023-02-28T04:06:45;7.23;;;4.83;;
8526;SDS011;4301;48.362;8.478;2023-02-28T04:09:16;9.60;;;4.53;;
8526;SDS011;4301;48.362;8.478;2023-02-28T04:11:44;5.13;;;4.60;;
8526;SDS011;4301;48.362;8.478;2023-02-28T04:14:13;5.20;;;4.70;;
8526;SDS011;4301;48.362;8.478;2023-02-28T04:16:41;5.47;;;4.77;;
8526;SDS011;4301;48.362;8.478;2023-02-28T04:19:09;7.00;;;5.30;;
8526;SDS011;4301;48.362;8.478;2023-02-28T04:21:38;6.07;;;5.20;;
8526;SDS011;4301;48.362;8.478;2023-02-28T04:24:08;6.63;;;4.70;;
8526;SDS011;4301;48.362;8.478;2023-02-28T04:26:39;5.60;;;5.10;;
8526;SDS011;4301;48.362;8.478;2023-02-28T04:29:09;5.73;;;5.13;;
8526;SDS011;4301;48.362;8.478;2023-02-28T04:31:37;5.73;;;5.10;;
8526;SDS011;4301;48.362;8.478;2023-02-28T04:34:04;5.63;;;5.13;;
8526;SDS011;4301;48.362;8.478;2023-02-28T04:36:32;6.00;;;5.40;;
8526;SDS011;4301;48.362;8.478;2023-02-28T04:38:59;6.77;;;5.20;;
8526;SDS011;4301;48.362;8.478;2023-02-28T04:41:27;6.20;;;5.60;;
8526;SDS011;4301;48.362;8.478;2023-02-28T04:43:54;6.20;;;5.60;;
8526;SDS011;4301;48.362;8.478;2023-02-28T04:46:21;5.90;;;4.97;;
8526;SDS011;4301;48.362;8.478;2023-02-28T04:48:49;5.73;;;5.20;;
8526;SDS011;4301;48.362;8.478;2023-02-28T04:51:16;6.03;;;5.43;;
8526;SDS011;4301;48.362;8.478;2023-02-28T04:53:45;6.40;;;5.70;;
8526;SDS011;4301;48.362;8.478;2023-02-28T04:56:13;7.43;;;5.97;;
8526;SDS011;4301;48.362;8.478;2023-02-28T04:58:43;5.90;;;5.23;;
8526;SDS011;4301;48.362;8.478;2023-02-28T05:01:17;7.47;;;5.87;;
8526;SDS011;4301;48.362;8.478;2023-02-28T05:03:46;6.60;;;6.00;;
8526;SDS011;4301;48.362;8.478;2023-02-28T05:06:14;7.17;;;5.80;;
8526;SDS011;4301;48.362;8.478;2023-02-28T05:08:42;7.33;;;6.60;;
8526;SDS011;4301;48.362;8.478;2023-02-28T05:11:12;7.33;;;6.63;;
8526;SDS011;4301;48.362;8.478;2023-02-28T05:13:44;7.57;;;6.77;;
8526;SDS011;4301;48.362;8.478;2023-02-28T05:16:11;7.53;;;6.73;;
8526;SDS011;4301;48.362;8.478;2023-02-28T05:18:38;8.80;;;6.97;;
8526;SDS011;4301;48.362;8.478;2023-02-28T05:21:05;9.13;;;7.03;;
8526;SDS011;4301;48.362;8.478;2023-02-28T05:23:41;7.33;;;6.63;;
8526;SDS011;4301;48.362;8.478;2023-02-28T05:26:08;7.60;;;6.57;;
8526;SDS011;4301;48.362;8.478;2023-02-28T05:28:34;8.27;;;7.27;;
8526;SDS011;4301;48.362;8.478;2023-02-28T05:31:03;7.90;;;7.10;;
8526;SDS011;4301;48.362;8.478;2023-02-28T05:33:30;7.77;;;6.97;;
8526;SDS011;4301;48.362;8.478;2023-02-28T05:35:57;8.77;;;7.37;;
8526;SDS011;4301;48.362;8.478;2023-02-28T05:38:24;8.90;;;7.87;;
8526;SDS011;4301;48.362;8.478;2023-02-28T05:40:52;8.30;;;7.50;;
8526;SDS011;4301;48.362;8.478;2023-02-28T05:43:19;9.03;;;7.63;;
8526;SDS011;4301;48.362;8.478;2023-02-28T05:45:46;8.53;;;7.60;;
8526;SDS011;4301;48.362;8.478;2023-02-28T05:48:14;8.17;;;7.33;;
8526;SDS011;4301;48.362;8.478;2023-02-28T05:50:41;8.57;;;7.53;;
8526;SDS011;4301;48.362;8.478;2023-02-28T05:53:11;8.30;;;7.47;;
8526;SDS011;4301;48.362;8.478;2023-02-28T05:55:37;9.37;;;8.40;;
8526;SDS011;4301;48.362;8.478;2023-02-28T05:58:06;9.20;;;8.30;;
8526;SDS011;4301;48.362;8.478;2023-02-28T06:00:33;9.10;;;8.20;;
8526;SDS011;4301;48.362;8.478;2023-02-28T06:03:00;9.77;;;8.30;;
8526;SDS011;4301;48.362;8.478;2023-02-28T06:05:28;10.03;;;8.50;;
8526;SDS011;4301;48.362;8.478;2023-02-28T06:07:55;8.80;;;7.90;;
8526;SDS011;4301;48.362;8.478;2023-02-28T06:10:22;9.83;;;8.40;;
8526;SDS011;4301;48.362;8.478;2023-02-28T06:12:49;12.37;;;8.80;;
8526;SDS011;4301;48.362;8.478;2023-02-28T06:15:16;10.17;;;9.07;;
8526;SDS011;4301;48.362;8.478;2023-02-28T06:17:43;10.57;;;8.90;;
8526;SDS011;4301;48.362;8.478;2023-02-28T06:20:11;10.33;;;8.90;;
8526;SDS011;4301;48.362;8.478;2023-02-28T06:22:40;11.20;;;8.73;;
8526;SDS011;4301;48.362;8.478;2023-02-28T06:25:09;9.80;;;8.80;;
8526;SDS011;4301;48.362;8.478;2023-02-28T06:27:36;11.60;;;9.77;;
8526;SDS011;4301;48.362;8.478;2023-02-28T06:30:03;11.97;;;9.33;;
8526;SDS011;4301;48.362;8.478;2023-02-28T06:32:31;10.93;;;9.83;;
8526;SDS011;4301;48.362;8.478;2023-02-28T06:34:58;10.17;;;9.17;;
8526;SDS011;4301;48.362;8.478;2023-02-28T06:37:25;11.10;;;9.90;;
8526;SDS011;4301;48.362;8.478;2023-02-28T06:39:53;13.07;;;11.70;;
8526;SDS011;4301;48.362;8.478;2023-02-28T06:42:21;12.03;;;9.60;;
8526;SDS011;4301;48.362;8.478;2023-02-28T06:44:49;10.80;;;9.70;;
8526;SDS011;4301;48.362;8.478;2023-02-28T06:47:17;15.93;;;12.03;;
8526;SDS011;4301;48.362;8.478;2023-02-28T06:49:43;10.70;;;9.60;;
8526;SDS011;4301;48.362;8.478;2023-02-28T06:52:11;11.50;;;10.30;;
8526;SDS011;4301;48.362;8.478;2023-02-28T06:54:38;12.07;;;10.03;;
8526;SDS011;4301;48.362;8.478;2023-02-28T06:57:06;11.80;;;10.00;;
8526;SDS011;4301;48.362;8.478;2023-02-28T06:59:34;11.93;;;9.80;;
8526;SDS011;4301;48.362;8.478;2023-02-28T07:02:01;12.47;;;10.57;;
8526;SDS011;4301;48.362;8.478;2023-02-28T07:04:28;11.47;;;10.23;;
8526;SDS011;4301;48.362;8.478;2023-02-28T07:06:55;12.17;;;10.27;;
8526;SDS011;4301;48.362;8.478;2023-02-28T07:09:22;13.43;;;11.30;;
8526;SDS011;4301;48.362;8.478;2023-02-28T07:11:49;10.90;;;9.80;;
8526;SDS011;4301;48.362;8.478;2023-02-28T07:14:17;10.63;;;9.53;;
8526;SDS011;4301;48.362;8.478;2023-02-28T07:16:44;11.87;;;9.63;;
8526;SDS011;4301;48.362;8.478;2023-02-28T07:19:11;12.03;;;9.77;;
8526;SDS011;4301;48.362;8.478;2023-02-28T07:21:38;11.13;;;9.90;;
8526;SDS011;4301;48.362;8.478;2023-02-28T07:24:05;10.90;;;9.80;;
8526;SDS011;4301;48.362;8.478;2023-02-28T07:26:32;11.07;;;9.73;;
8526;SDS011;4301;48.362;8.478;2023-02-28T07:29:00;10.53;;;9.43;;
8526;SDS011;4301;48.362;8.478;2023-02-28T07:31:28;13.17;;;10.50;;
8526;SDS011;4301;48.362;8.478;2023-02-28T07:33:55;14.77;;;13.17;;
8526;SDS011;4301;48.362;8.478;2023-02-28T07:36:22;11.93;;;10.73;;
8526;SDS011;4301;48.362;8.478;2023-02-28T07:38:49;11.10;;;10.00;;
8526;SDS011;4301;48.362;8.478;2023-02-28T07:41:16;10.20;;;9.17;;
8526;SDS011;4301;48.362;8.478;2023-02-28T07:43:44;11.87;;;10.37;;
8526;SDS011;4301;48.362;8.478;2023-02-28T07:46:12;11.97;;;10.67;;
8526;SDS011;4301;48.362;8.478;2023-02-28T07:48:42;13.50;;;11.23;;
8526;SDS011;4301;48.362;8.478;2023-02-28T07:51:10;11.63;;;9.93;;
8526;SDS011;4301;48.362;8.478;2023-02-28T07:53:37;11.87;;;10.17;;
8526;SDS011;4301;48.362;8.478;2023-02-28T07:56:04;11.70;;;9.87;;
8526;SDS011;4301;48.362;8.478;2023-02-28T07:58:32;11.23;;;9.83;;
8526;SDS011;4301;48.362;8.478;2023-02-28T08:01:04;13.10;;;11.77;;
8526;SDS011;4301;48.362;8.478;2023-02-28T08:03:31;10.63;;;9.53;;
8526;SDS011;4301;48.362;8.478;2023-02-28T08:06:00;12.43;;;10.23;;
8526;SDS011;4301;48.362;8.478;2023-02-28T08:08:28;12.70;;;10.80;;
8526;SDS011;4301;48.362;8.478;2023-02-28T08:10:57;11.40;;;10.07;;
8526;SDS011;4301;48.362;8.478;2023-02-28T08:13:25;12.97;;;10.77;;
8526;SDS011;4301;48.362;8.478;2023-02-28T08:15:53;16.10;;;13.53;;
8526;SDS011;4301;48.362;8.478;2023-02-28T08:18:20;16.87;;;12.43;;
8526;SDS011;4301;48.362;8.478;2023-02-28T08:20:48;11.37;;;10.27;;
8526;SDS011;4301;48.362;8.478;2023-02-28T08:23:16;10.97;;;9.77;;
8526;SDS011;4301;48.362;8.478;2023-02-28T08:25:43;11.07;;;9.90;;
8526;SDS011;4301;48.362;8.478;2023-02-28T08:28:10;12.03;;;10.77;;
8526;SDS011;4301;48.362;8.478;2023-02-28T08:30:37;18.20;;;13.47;;
8526;SDS011;4301;48.362;8.478;2023-02-28T08:33:06;11.30;;;10.10;;
8526;SDS011;4301;48.362;8.478;2023-02-28T08:35:34;13.67;;;11.37;;
8526;SDS011;4301;48.362;8.478;2023-02-28T08:38:02;10.07;;;9.07;;
8526;SDS011;4301;48.362;8.478;2023-02-28T08:40:30;21.07;;;15.73;;
8526;SDS011;4301;48.362;8.478;2023-02-28T08:42:57;11.57;;;10.10;;
8526;SDS011;4301;48.362;8.478;2023-02-28T08:45:24;15.13;;;11.13;;
8526;SDS011;4301;48.362;8.478;2023-02-28T08:47:52;11.73;;;10.53;;
8526;SDS011;4301;48.362;8.478;2023-02-28T08:50:20;13.80;;;11.20;;
8526;SDS011;4301;48.362;8.478;2023-02-28T08:52:47;11.17;;;9.67;;
8526;SDS011;4301;48.362;8.478;2023-02-28T08:55:14;10.73;;;9.63;;
8526;SDS011;4301;48.362;8.478;2023-02-28T08:57:42;11.07;;;9.80;;
8526;SDS011;4301;48.362;8.478;2023-02-28T09:00:10;11.00;;;9.77;;
8526;SDS011;4301;48.362;8.478;2023-02-28T09:02:38;11.07;;;9.80;;
8526;SDS011;4301;48.362;8.478;2023-02-28T09:05:05;12.77;;;10.33;;
8526;SDS011;4301;48.362;8.478;2023-02-28T09:07:34;14.77;;;10.73;;
8526;SDS011;4301;48.362;8.478;2023-02-28T09:10:01;13.20;;;10.73;;
8526;SDS011;4301;48.362;8.478;2023-02-28T09:12:28;12.93;;;11.27;;
8526;SDS011;4301;48.362;8.478;2023-02-28T09:15:01;11.40;;;10.17;;
8526;SDS011;4301;48.362;8.478;2023-02-28T09:17:28;12.67;;;10.13;;
8526;SDS011;4301;48.362;8.478;2023-02-28T09:19:55;12.53;;;10.07;;
8526;SDS011;4301;48.362;8.478;2023-02-28T09:22:22;11.00;;;9.90;;
8526;SDS011;4301;48.362;8.478;2023-02-28T09:24:49;12.80;;;9.93;;
8526;SDS011;4301;48.362;8.478;2023-02-28T09:27:15;10.93;;;9.83;;
8526;SDS011;4301;48.362;8.478;2023-02-28T09:29:42;11.50;;;9.80;;
8526;SDS011;4301;48.362;8.478;2023-02-28T09:32:11;11.40;;;10.20;;
8526;SDS011;4301;48.362;8.478;2023-02-28T09:34:37;11.53;;;10.27;;
8526;SDS011;4301;48.362;8.478;2023-02-28T09:37:04;11.73;;;10.13;;
8526;SDS011;4301;48.362;8.478;2023-02-28T09:39:31;12.10;;;10.90;;
8526;SDS011;4301;48.362;8.478;2023-02-28T09:41:58;12.83;;;10.50;;
8526;SDS011;4301;48.362;8.478;2023-02-28T09:44:27;11.43;;;9.73;;
8526;SDS011;4301;48.362;8.478;2023-02-28T09:46:57;12.50;;;10.10;;
8526;SDS011;4301;48.362;8.478;2023-02-28T09:49:31;14.17;;;10.90;;
8526;SDS011;4301;48.362;8.478;2023-02-28T09:52:04;12.93;;;10.87;;
8526;SDS011;4301;48.362;8.478;2023-02-28T09:54:34;13.50;;;10.77;;
8526;SDS011;4301;48.362;8.478;2023-02-28T09:57:04;12.03;;;10.73;;
8526;SDS011;4301;48.362;8.478;2023-02-28T10:05:34;11.90;;;10.67;;
8526;SDS011;4301;48.362;8.478;2023-02-28T10:08:08;12.83;;;10.13;;
8526;SDS011;4301;48.362;8.478;2023-02-28T10:10:40;13.37;;;11.53;;
8526;SDS011;4301;48.362;8.478;2023-02-28T10:13:13;11.60;;;9.87;;
8526;SDS011;4301;48.362;8.478;2023-02-28T10:15:46;14.20;;;10.80;;
8526;SDS011;4301;48.362;8.478;2023-02-28T10:18:18;11.57;;;10.27;;
8526;SDS011;4301;48.362;8.478;2023-02-28T10:20:51;14.47;;;10.40;;
8526;SDS011;4301;48.362;8.478;2023-02-28T10:23:21;12.20;;;10.57;;
8526;SDS011;4301;48.362;8.478;2023-02-28T10:25:53;12.00;;;10.60;;
8526;SDS011;4301;48.362;8.478;2023-02-28T10:28:24;11.90;;;10.70;;
8526;SDS011;4301;48.362;8.478;2023-02-28T10:30:53;12.10;;;10.60;;
8526;SDS011;4301;48.362;8.478;2023-02-28T10:33:22;11.40;;;10.20;;
8526;SDS011;4301;48.362;8.478;2023-02-28T10:35:52;12.60;;;11.17;;
8526;SDS011;4301;48.362;8.478;2023-02-28T10:38:20;14.73;;;12.17;;
8526;SDS011;4301;48.362;8.478;2023-02-28T10:40:48;16.03;;;11.83;;
8526;SDS011;4301;48.362;8.478;2023-02-28T10:43:18;16.10;;;12.67;;
8526;SDS011;4301;48.362;8.478;2023-02-28T10:45:54;13.37;;;11.40;;
8526;SDS011;4301;48.362;8.478;2023-02-28T10:48:34;12.90;;;11.60;;
8526;SDS011;4301;48.362;8.478;2023-02-28T10:51:05;12.47;;;11.20;;
8526;SDS011;4301;48.362;8.478;2023-02-28T10:53:35;15.97;;;13.53;;
8526;SDS011;4301;48.362;8.478;2023-02-28T10:56:12;14.23;;;12.73;;
8526;SDS011;4301;48.362;8.478;2023-02-28T10:58:46;16.47;;;13.47;;
8526;SDS011;4301;48.362;8.478;2023-02-28T11:01:17;13.43;;;11.57;;
8526;SDS011;4301;48.362;8.478;2023-02-28T11:03:45;13.30;;;11.90;;
8526;SDS011;4301;48.362;8.478;2023-02-28T11:06:15;97.30;;;54.27;;
8526;SDS011;4301;48.362;8.478;2023-02-28T11:08:46;29.67;;;21.40;;
8526;SDS011;4301;48.362;8.478;2023-02-28T11:11:15;34.13;;;24.70;;
8526;SDS011;4301;48.362;8.478;2023-02-28T11:13:43;15.60;;;11.83;;
8526;SDS011;4301;48.362;8.478;2023-02-28T11:16:13;17.60;;;13.97;;
8526;SDS011;4301;48.362;8.478;2023-02-28T11:18:42;14.03;;;11.63;;
8526;SDS011;4301;48.362;8.478;2023-02-28T11:21:20;21.70;;;17.07;;
8526;SDS011;4301;48.362;8.478;2023-02-28T11:23:50;18.20;;;13.33;;
8526;SDS011;4301;48.362;8.478;2023-02-28T11:26:40;15.17;;;13.20;;
8526;SDS011;4301;48.362;8.478;2023-02-28T11:29:12;13.63;;;12.20;;
8526;SDS011;4301;48.362;8.478;2023-02-28T11:31:49;14.77;;;12.77;;
8526;SDS011;4301;48.362;8.478;2023-02-28T11:34:29;15.83;;;13.20;;
8526;SDS011;4301;48.362;8.478;2023-02-28T11:36:58;13.37;;;11.97;;
8526;SDS011;4301;48.362;8.478;2023-02-28T11:39:30;13.47;;;11.20;;
8526;SDS011;4301;48.362;8.478;2023-02-28T11:42:10;18.63;;;15.43;;
8526;SDS011;4301;48.362;8.478;2023-02-28T11:44:58;12.70;;;11.50;;
8526;SDS011;4301;48.362;8.478;2023-02-28T11:47:42;12.90;;;11.60;;
8526;SDS011;4301;48.362;8.478;2023-02-28T11:50:20;14.07;;;12.07;;
8526;SDS011;4301;48.362;8.478;2023-02-28T11:52:57;12.87;;;11.43;;
8526;SDS011;4301;48.362;8.478;2023-02-28T11:55:28;14.87;;;12.83;;
8526;SDS011;4301;48.362;8.478;2023-02-28T11:58:13;13.30;;;11.90;;
8526;SDS011;4301;48.362;8.478;2023-02-28T12:00:52;12.97;;;11.47;;
8526;SDS011;4301;48.362;8.478;2023-02-28T12:03:26;12.50;;;10.90;;
8526;SDS011;4301;48.362;8.478;2023-02-28T12:06:03;13.20;;;11.80;;
8526;SDS011;4301;48.362;8.478;2023-02-28T12:08:44;13.87;;;11.83;;
8526;SDS011;4301;48.362;8.478;2023-02-28T12:11:22;12.97;;;11.57;;
8526;SDS011;4301;48.362;8.478;2023-02-28T12:14:09;14.93;;;11.77;;
8526;SDS011;4301;48.362;8.478;2023-02-28T12:16:50;14.33;;;12.50;;
8526;SDS011;4301;48.362;8.478;2023-02-28T12:19:25;15.40;;;13.20;;
8526;SDS011;4301;48.362;8.478;2023-02-28T12:28:06;14.30;;;11.30;;
8526;SDS011;4301;48.362;8.478;2023-02-28T12:30:35;12.63;;;11.33;;
8526;SDS011;4301;48.362;8.478;2023-02-28T12:33:07;12.90;;;11.43;;
8526;SDS011;4301;48.362;8.478;2023-02-28T12:35:47;16.20;;;11.73;;
8526;SDS011;4301;48.362;8.478;2023-02-28T12:38:17;12.30;;;11.00;;
8526;SDS011;4301;48.362;8.478;2023-02-28T12:40:50;11.90;;;10.70;;
8526;SDS011;4301;48.362;8.478;2023-02-28T12:43:20;13.37;;;11.73;;
8526;SDS011;4301;48.362;8.478;2023-02-28T12:45:52;24.23;;;18.27;;
8526;SDS011;4301;48.362;8.478;2023-02-28T12:48:24;12.40;;;11.10;;
8526;SDS011;4301;48.362;8.478;2023-02-28T12:51:06;12.77;;;11.47;;
8526;SDS011;4301;48.362;8.478;2023-02-28T12:53:35;15.20;;;13.57;;
8526;SDS011;4301;48.362;8.478;2023-02-28T12:56:20;12.20;;;10.90;;
8526;SDS011;4301;48.362;8.478;2023-02-28T12:58:56;15.23;;;13.50;;
8526;SDS011;4301;48.362;8.478;2023-02-28T13:01:39;18.33;;;15.70;;
8526;SDS011;4301;48.362;8.478;2023-02-28T13:07:23;22.80;;;19.43;;
8526;SDS011;4301;48.362;8.478;2023-02-28T13:10:14;12.10;;;10.90;;
8526;SDS011;4301;48.362;8.478;2023-02-28T13:12:48;11.47;;;10.23;;
8526;SDS011;4301;48.362;8.478;2023-02-28T13:15:18;11.37;;;10.20;;
8526;SDS011;4301;48.362;8.478;2023-02-28T13:17:49;11.63;;;10.43;;
8526;SDS011;4301;48.362;8.478;2023-02-28T13:20:18;11.93;;;9.67;;
8526;SDS011;4301;48.362;8.478;2023-02-28T13:22:47;11.63;;;9.67;;
8526;SDS011;4301;48.362;8.478;2023-02-28T13:31:24;10.33;;;9.33;;
8526;SDS011;4301;48.362;8.478;2023-02-28T13:36:41;11.10;;;9.23;;
8526;SDS011;4301;48.362;8.478;2023-02-28T13:42:22;10.43;;;8.57;;
8526;SDS011;4301;48.362;8.478;2023-02-28T13:47:54;9.47;;;8.57;;
8526;SDS011;4301;48.362;8.478;2023-02-28T13:50:27;10.20;;;9.20;;
8526;SDS011;4301;48.362;8.478;2023-02-28T13:53:02;9.60;;;8.70;;
8526;SDS011;4301;48.362;8.478;2023-02-28T13:55:53;9.83;;;8.93;;
8526;SDS011;4301;48.362;8.478;2023-02-28T13:58:32;9.87;;;8.87;;
8526;SDS011;4301;48.362;8.478;2023-02-28T14:01:22;10.43;;;9.53;;
8526;SDS011;4301;48.362;8.478;2023-02-28T14:04:09;9.83;;;8.87;;
8526;SDS011;4301;48.362;8.478;2023-02-28T14:06:56;9.47;;;8.67;;
8526;SDS011;4301;48.362;8.478;2023-02-28T14:09:24;17.07;;;12.47;;
8526;SDS011;4301;48.362;8.478;2023-02-28T14:11:54;12.30;;;10.27;;
8526;SDS011;4301;48.362;8.478;2023-02-28T14:17:21;10.60;;;9.60;;
8526;SDS011;4301;48.362;8.478;2023-02-28T14:19:51;10.40;;;9.40;;
8526;SDS011;4301;48.362;8.478;2023-02-28T14:22:21;10.43;;;9.43;;
8526;SDS011;4301;48.362;8.478;2023-02-28T14:25:11;10.40;;;9.40;;
8526;SDS011;4301;48.362;8.478;2023-02-28T14:27:48;10.23;;;9.23;;
8526;SDS011;4301;48.362;8.478;2023-02-28T14:30:37;10.77;;;9.73;;
8526;SDS011;4301;48.362;8.478;2023-02-28T14:33:18;10.77;;;9.77;;
8526;SDS011;4301;48.362;8.478;2023-02-28T14:36:03;12.30;;;9.90;;
8526;SDS011;4301;48.362;8.478;2023-02-28T14:38:36;11.27;;;10.17;;
8526;SDS011;4301;48.362;8.478;2023-02-28T14:41:12;10.37;;;9.20;;
8526;SDS011;4301;48.362;8.478;2023-02-28T14:43:47;11.97;;;9.27;;
8526;SDS011;4301;48.362;8.478;2023-02-28T14:46:16;10.20;;;9.10;;
8526;SDS011;4301;48.362;8.478;2023-02-28T14:48:45;12.60;;;11.30;;
8526;SDS011;4301;48.362;8.478;2023-02-28T14:51:17;10.47;;;9.47;;
8526;SDS011;4301;48.362;8.478;2023-02-28T14:53:48;10.20;;;9.20;;
8526;SDS011;4301;48.362;8.478;2023-02-28T14:56:21;10.10;;;9.13;;
8526;SDS011;4301;48.362;8.478;2023-02-28T14:58:53;11.23;;;9.17;;
8526;SDS011;4301;48.362;8.478;2023-02-28T15:01:22;10.87;;;9.97;;
8526;SDS011;4301;48.362;8.478;2023-02-28T15:03:57;10.03;;;9.13;;
8526;SDS011;4301;48.362;8.478;2023-02-28T15:06:27;11.03;;;9.30;;
8526;SDS011;4301;48.362;8.478;2023-02-28T15:11:45;10.77;;;9.80;;
8526;SDS011;4301;48.362;8.478;2023-02-28T15:14:18;10.97;;;9.63;;
8526;SDS011;4301;48.362;8.478;2023-02-28T15:16:48;11.03;;;9.93;;
8526;SDS011;4301;48.362;8.478;2023-02-28T15:19:20;14.20;;;9.50;;
8526;SDS011;4301;48.362;8.478;2023-02-28T15:21:52;9.87;;;8.87;;
8526;SDS011;4301;48.362;8.478;2023-02-28T15:24:26;11.00;;;9.90;;
8526;SDS011;4301;48.362;8.478;2023-02-28T15:26:58;10.60;;;9.50;;
8526;SDS011;4301;48.362;8.478;2023-02-28T15:29:27;10.70;;;9.63;;
8526;SDS011;4301;48.362;8.478;2023-02-28T15:31:58;13.07;;;10.03;;
8526;SDS011;4301;48.362;8.478;2023-02-28T15:34:28;16.43;;;11.93;;
8526;SDS011;4301;48.362;8.478;2023-02-28T15:37:01;16.83;;;12.43;;
8526;SDS011;4301;48.362;8.478;2023-02-28T15:39:32;19.20;;;12.50;;
8526;SDS011;4301;48.362;8.478;2023-02-28T15:42:11;13.27;;;11.37;;
8526;SDS011;4301;48.362;8.478;2023-02-28T15:44:39;17.67;;;12.77;;
8526;SDS011;4301;48.362;8.478;2023-02-28T15:47:07;11.60;;;10.40;;
8526;SDS011;4301;48.362;8.478;2023-02-28T15:49:45;12.97;;;10.60;;
8526;SDS011;4301;48.362;8.478;2023-02-28T15:52:15;16.20;;;12.47;;
8526;SDS011;4301;48.362;8.478;2023-02-28T15:54:43;15.00;;;12.45;;
8526;SDS011;4301;48.362;8.478;2023-02-28T15:57:13;12.30;;;10.93;;
8526;SDS011;4301;48.362;8.478;2023-02-28T15:59:45;12.90;;;11.43;;
8526;SDS011;4301;48.362;8.478;2023-02-28T16:02:17;13.40;;;12.00;;
8526;SDS011;4301;48.362;8.478;2023-02-28T16:04:59;11.80;;;10.60;;
8526;SDS011;4301;48.362;8.478;2023-02-28T16:07:29;11.17;;;9.93;;
8526;SDS011;4301;48.362;8.478;2023-02-28T16:09:56;11.57;;;10.40;;